Time;durP1;ratioP1;P1;durP2;ratioP2;P2;SDS_P1;SDS_P2;PMS_P1;PMS_P2;Temp;Humidity;BMP_temperature;BMP_pressure;BME280_temperature;BME280_humidity;BME280_pressure;Samples;Min_cycle;Max_cycle;Signal;HPM_P1;HPM_P2
2022/08/09 00:02:01;;;;;;;;;;;;;;;15.59;100.00;-25505.78;5074470;28;19912;-76
2022/08/09 00:04:27;;;;;;;;;;;;;;;15.57;100.00;-25505.34;5074598;28;19920;-76
2022/08/09 00:06:52;;;;;;;;;;;;;;;15.57;100.00;-25505.22;5075119;28;19924;-76
2022/08/09 00:09:18;;;;;;;;;;;;;;;15.57;100.00;-25505.22;5074375;28;19916;-76
2022/08/09 00:11:44;;;;;;;;;;;;;;;15.57;100.00;-25505.34;5075180;28;20003;-77
2022/08/09 00:14:09;;;;;;;;;;;;;;;15.52;100.00;-25503.75;5074002;28;19970;-77
2022/08/09 00:16:35;;;;;;;;;;;;;;;15.48;100.00;-25502.59;5074667;28;19917;-76
2022/08/09 00:19:00;;;;;;;;;;;;;;;15.40;100.00;-25500.56;5074461;28;19923;-76
2022/08/09 00:21:26;;;;;;;;;;;;;;;15.37;100.00;-25499.69;5074338;28;20386;-76
2022/08/09 00:23:54;;;;;;;;;;;;;;;15.38;100.00;-25499.97;5074986;28;19940;-76
2022/08/09 00:26:20;;;;;;;;;;;;;;;15.39;100.00;-25500.13;5057969;28;19996;-75
2022/08/09 00:28:45;;;;;;;;;;;;;;;15.41;100.00;-25500.84;5074184;28;19978;-76
2022/08/09 00:31:10;;;;;;;;;;;;;;;15.37;100.00;-25499.69;5074315;28;19923;-76
2022/08/09 00:33:38;;;;;;;;;;;;;;;15.32;100.00;-25498.22;5074512;28;19946;-76
2022/08/09 00:36:03;;;;;;;;;;;;;;;15.29;100.00;-25497.22;5087418;28;20368;-76
2022/08/09 00:38:29;;;;;;;;;;;;;;;15.27;100.00;-25496.78;5094004;28;20006;-77
2022/08/09 00:40:54;;;;;;;;;;;;;;;15.28;100.00;-25496.94;5074952;28;19924;-76
2022/08/09 00:43:21;;;;;;;;;;;;;;;15.21;100.00;-25495.19;5074938;28;20039;-77
2022/08/09 00:45:47;;;;;;;;;;;;;;;15.20;100.00;-25494.75;5074515;28;19913;-77
2022/08/09 00:48:12;;;;;;;;;;;;;;;15.10;100.00;-25491.81;5073738;28;19916;-76
2022/08/09 00:50:37;;;;;;;;;;;;;;;15.05;100.00;-25490.53;5073513;28;20391;-77
2022/08/09 00:53:06;;;;;;;;;;;;;;;15.01;100.00;-25489.34;5073791;28;19922;-76
2022/08/09 00:55:31;;;;;;;;;;;;;;;14.98;100.00;-25488.63;5074511;28;20360;-76
2022/08/09 00:57:56;;;;;;;;;;;;;;;15.03;100.00;-25490.09;5073204;28;19955;-76
2022/08/09 01:00:22;;;;;;;;;;;;;;;15.01;100.00;-25489.34;5074144;28;19927;-76
2022/08/09 01:02:52;;;;;;;;;;;;;;;14.94;100.00;-25487.47;5074192;28;19939;-76
2022/08/09 01:05:36;;;;;;;;;;;;;;;14.85;100.00;-25484.84;5072924;28;19921;-76
2022/08/09 01:08:01;;;;;;;;;;;;;;;14.83;100.00;-25484.25;5073245;28;19959;-76
2022/08/09 01:10:36;;;;;;;;;;;;;;;14.79;100.00;-25483.25;5073193;28;19927;-75
2022/08/09 01:13:20;;;;;;;;;;;;;;;14.79;100.00;-25483.09;5073599;28;20365;-76
2022/08/09 01:15:46;;;;;;;;;;;;;;;14.80;100.00;-25483.53;5073566;28;19916;-76
2022/08/09 01:18:20;;;;;;;;;;;;;;;14.71;100.00;-25481.06;5071962;28;19917;-75
2022/08/09 01:20:55;;;;;;;;;;;;;;;14.68;100.00;-25480.03;5072521;28;20058;-77
2022/08/09 01:23:22;;;;;;;;;;;;;;;14.64;100.00;-25479.00;5073487;28;19917;-78
2022/08/09 01:25:55;;;;;;;;;;;;;;;14.66;100.00;-25479.59;5071283;28;20381;-78
2022/08/09 01:28:22;;;;;;;;;;;;;;;14.67;100.00;-25479.88;5073218;28;20281;-77
2022/08/09 01:30:48;;;;;;;;;;;;;;;14.60;100.00;-25477.69;5073725;28;19916;-77
2022/08/09 01:33:20;;;;;;;;;;;;;;;14.54;100.00;-25476.25;5072728;28;20077;-77
2022/08/09 01:35:51;;;;;;;;;;;;;;;14.57;100.00;-25476.81;5073175;28;19927;-79
2022/08/09 01:38:18;;;;;;;;;;;;;;;14.58;100.00;-25477.25;5072657;28;20058;-78
2022/08/09 01:40:53;;;;;;;;;;;;;;;14.60;100.00;-25477.69;5072655;28;19920;-78
2022/08/09 01:43:21;;;;;;;;;;;;;;;14.63;100.00;-25478.56;5073262;28;20019;-78
2022/08/09 01:45:47;;;;;;;;;;;;;;;14.60;100.00;-25477.84;5073135;28;19912;-78
2022/08/09 01:48:14;;;;;;;;;;;;;;;14.59;100.00;-25477.56;5072248;28;19926;-78
2022/08/09 01:50:40;;;;;;;;;;;;;;;14.58;100.00;-25477.25;5085243;28;19923;-77
2022/08/09 01:53:08;;;;;;;;;;;;;;;14.57;100.00;-25476.97;5092307;28;19923;-78
2022/08/09 01:55:34;;;;;;;;;;;;;;;14.61;100.00;-25478.16;5075578;28;19920;-75
2022/08/09 01:58:00;;;;;;;;;;;;;;;14.57;100.00;-25476.81;5073552;28;19916;-75
2022/08/09 02:00:27;;;;;;;;;;;;;;;14.53;100.00;-25475.94;5092541;28;19916;-76
2022/08/09 02:02:54;;;;;;;;;;;;;;;14.48;100.00;-25474.50;5093098;28;19916;-76
2022/08/09 02:05:20;;;;;;;;;;;;;;;14.50;100.00;-25474.94;5081124;28;20373;-75
2022/08/09 02:07:58;;;;;;;;;;;;;;;14.50;100.00;-25474.94;5072231;28;20594;-75
2022/08/09 02:10:25;;;;;;;;;;;;;;;14.41;100.00;-25472.31;5072556;28;19916;-75
2022/08/09 02:12:54;;;;;;;;;;;;;;;14.43;100.00;-25472.91;5071679;28;19917;-76
2022/08/09 02:15:22;;;;;;;;;;;;;;;14.42;100.00;-25472.59;5071631;28;20007;-76
2022/08/09 02:17:48;;;;;;;;;;;;;;;14.44;100.00;-25473.19;5071938;28;20538;-76
2022/08/09 02:20:17;;;;;;;;;;;;;;;14.46;100.00;-25473.91;5071840;28;19977;-77
2022/08/09 02:22:55;;;;;;;;;;;;;;;14.43;100.00;-25472.91;5072285;28;19916;-76
2022/08/09 02:25:24;;;;;;;;;;;;;;;14.47;100.00;-25474.06;5072274;28;20392;-76
2022/08/09 02:27:55;;;;;;;;;;;;;;;14.48;100.00;-25474.50;5071696;28;19925;-77
2022/08/09 02:30:21;;;;;;;;;;;;;;;14.45;100.00;-25473.47;5072523;28;19916;-76
2022/08/09 02:32:49;;;;;;;;;;;;;;;14.47;100.00;-25474.19;5088678;28;20452;-77
2022/08/09 02:35:20;;;;;;;;;;;;;;;14.47;100.00;-25474.19;5085210;28;19964;-76
2022/08/09 02:37:46;;;;;;;;;;;;;;;14.43;100.00;-25472.91;5072139;28;20432;-77
2022/08/09 02:40:13;;;;;;;;;;;;;;;14.36;100.00;-25471.16;5071367;28;20506;-77
2022/08/09 02:42:41;;;;;;;;;;;;;;;14.32;100.00;-25469.97;5087214;28;19977;-77
2022/08/09 02:45:11;;;;;;;;;;;;;;;14.35;100.00;-25470.72;5074854;28;19924;-77
2022/08/09 02:47:38;;;;;;;;;;;;;;;14.40;100.00;-25472.16;5092057;28;20372;-77
2022/08/09 02:50:06;;;;;;;;;;;;;;;14.39;100.00;-25471.72;5091314;28;19943;-76
2022/08/09 02:52:38;;;;;;;;;;;;;;;14.28;100.00;-25468.81;5077855;28;19920;-77
2022/08/09 02:55:06;;;;;;;;;;;;;;;14.26;100.00;-25468.22;5084480;28;19951;-77
2022/08/09 02:57:32;;;;;;;;;;;;;;;14.22;100.00;-25466.91;5070087;28;20387;-77
2022/08/09 02:59:58;;;;;;;;;;;;;;;14.19;100.00;-25466.19;5080960;28;20030;-77
2022/08/09 03:02:24;;;;;;;;;;;;;;;14.12;100.00;-25464.16;5089609;28;20235;-76
2022/08/09 03:04:50;;;;;;;;;;;;;;;14.09;100.00;-25463.28;5089989;28;19943;-77
2022/08/09 03:07:17;;;;;;;;;;;;;;;13.98;100.00;-25460.22;5069895;28;20353;-76
2022/08/09 03:09:44;;;;;;;;;;;;;;;13.99;100.00;-25460.50;5069271;28;19928;-77
2022/08/09 03:12:10;;;;;;;;;;;;;;;14.00;100.00;-25460.78;5077203;28;19916;-76
2022/08/09 03:14:36;;;;;;;;;;;;;;;13.96;100.00;-25459.78;5091224;28;19920;-76
2022/08/09 03:17:02;;;;;;;;;;;;;;;13.96;100.00;-25459.78;5072671;28;19920;-76
2022/08/09 03:19:29;;;;;;;;;;;;;;;13.95;100.00;-25459.34;5070251;28;19963;-77
2022/08/09 03:21:55;;;;;;;;;;;;;;;13.96;100.00;-25459.78;5069870;28;19927;-76
2022/08/09 03:24:21;;;;;;;;;;;;;;;13.96;100.00;-25459.78;5103352;28;19917;-76
2022/08/09 03:26:47;;;;;;;;;;;;;;;13.94;100.00;-25459.19;5070530;28;19924;-76
2022/08/09 03:29:13;;;;;;;;;;;;;;;13.95;100.00;-25459.34;5075360;28;19951;-76
2022/08/09 03:31:39;;;;;;;;;;;;;;;13.94;100.00;-25459.19;5077905;28;19920;-76
2022/08/09 03:34:06;;;;;;;;;;;;;;;13.91;100.00;-25458.31;5095663;28;19916;-75
2022/08/09 03:36:31;;;;;;;;;;;;;;;13.91;100.00;-25458.31;5089812;28;20003;-76
2022/08/09 03:38:57;;;;;;;;;;;;;;;13.90;100.00;-25457.88;5075294;28;20370;-76
2022/08/09 03:41:22;;;;;;;;;;;;;;;13.94;100.00;-25459.03;5086384;28;19916;-76
2022/08/09 03:43:48;;;;;;;;;;;;;;;13.95;100.00;-25459.47;5075158;28;19969;-76
2022/08/09 03:46:13;;;;;;;;;;;;;;;13.96;100.00;-25459.63;5074656;28;19920;-76
2022/08/09 03:48:38;;;;;;;;;;;;;;;13.98;100.00;-25460.22;5074482;28;20288;-77
2022/08/09 03:51:06;;;;;;;;;;;;;;;13.97;96.91;-25460.06;5073334;28;19924;-76
2022/08/09 03:53:32;;;;;;;;;;;;;;;13.99;94.56;-25460.50;5075542;28;19939;-76
2022/08/09 03:55:57;;;;;;;;;;;;;;;14.00;92.70;-25460.78;5074138;28;19920;-74
2022/08/09 03:58:22;;;;;;;;;;;;;;;13.98;91.53;-25460.34;5074679;28;19923;-76
2022/08/09 04:00:48;;;;;;;;;;;;;;;13.99;89.97;-25460.50;5075091;28;19956;-75
2022/08/09 04:03:14;;;;;;;;;;;;;;;13.96;88.34;-25459.78;5074643;28;19920;-75
2022/08/09 04:05:39;;;;;;;;;;;;;;;14.02;86.94;-25461.38;5072754;28;19924;-76
2022/08/09 04:08:05;;;;;;;;;;;;;;;13.99;86.77;-25460.50;5074678;28;19925;-76
2022/08/09 04:10:30;;;;;;;;;;;;;;;14.00;86.46;-25460.94;5074777;28;20319;-75
2022/08/09 04:12:59;;;;;;;;;;;;;;;13.99;85.71;-25460.66;5073852;28;19916;-75
2022/08/09 04:15:24;;;;;;;;;;;;;;;14.04;84.70;-25461.81;5074255;28;20342;-75
2022/08/09 04:17:49;;;;;;;;;;;;;;;14.03;84.22;-25461.66;5074419;28;19978;-75
2022/08/09 04:20:15;;;;;;;;;;;;;;;14.05;83.72;-25462.25;5073964;28;20375;-75
2022/08/09 04:22:43;;;;;;;;;;;;;;;14.09;83.13;-25463.28;5074271;28;19916;-76
2022/08/09 04:25:09;;;;;;;;;;;;;;;14.13;82.79;-25464.59;5073834;28;19924;-76
2022/08/09 04:27:39;;;;;;;;;;;;;;;14.14;82.38;-25464.72;5073405;28;19917;-76
2022/08/09 04:30:05;;;;;;;;;;;;;;;14.14;82.22;-25464.88;5073881;28;19924;-76
2022/08/09 04:32:31;;;;;;;;;;;;;;;14.19;82.37;-25466.19;5072315;28;19917;-75
2022/08/09 04:34:56;;;;;;;;;;;;;;;14.15;82.83;-25465.16;5071750;28;19923;-75
2022/08/09 04:37:22;;;;;;;;;;;;;;;14.15;83.58;-25465.03;5073638;28;19931;-75
2022/08/09 04:39:47;;;;;;;;;;;;;;;14.14;84.76;-25464.72;5107037;28;19928;-76
2022/08/09 04:42:12;;;;;;;;;;;;;;;14.15;86.11;-25465.03;5076069;28;20661;-75
2022/08/09 04:44:38;;;;;;;;;;;;;;;14.11;88.41;-25463.84;5078521;28;19916;-76
2022/08/09 04:47:03;;;;;;;;;;;;;;;14.14;90.84;-25464.88;5072984;28;19939;-76
2022/08/09 04:49:32;;;;;;;;;;;;;;;14.37;93.60;-25471.28;5096180;28;19921;-76
2022/08/09 04:51:57;;;;;;;;;;;;;;;14.53;100.00;-25475.81;5052294;28;19917;-75
2022/08/09 04:54:24;;;;;;;;;;;;;;;14.58;100.00;-25477.13;5090814;28;19927;-75
2022/08/09 04:56:49;;;;;;;;;;;;;;;14.91;100.00;-25486.59;5059928;28;20407;-75
2022/08/09 04:59:14;;;;;;;;;;;;;;;15.35;100.00;-25499.09;5077734;28;19921;-76
2022/08/09 05:01:40;;;;;;;;;;;;;;;15.42;100.00;-25501.00;5073183;28;19917;-75
2022/08/09 05:04:07;;;;;;;;;;;;;;;15.59;100.00;-25505.78;5072735;28;19939;-75
2022/08/09 05:06:32;;;;;;;;;;;;;;;15.92;100.00;-25515.25;5074813;28;19924;-76
2022/08/09 05:08:57;;;;;;;;;;;;;;;15.93;100.00;-25515.41;5073013;28;19920;-76
2022/08/09 05:11:25;;;;;;;;;;;;;;;15.71;100.00;-25509.13;5073199;28;20457;-76
2022/08/09 05:13:50;;;;;;;;;;;;;;;15.83;100.00;-25512.63;5073237;28;19927;-76
2022/08/09 05:16:15;;;;;;;;;;;;;;;16.06;100.00;-25519.03;5072684;28;19917;-75
2022/08/09 05:18:40;;;;;;;;;;;;;;;16.16;100.00;-25521.94;5072864;28;19924;-77
2022/08/09 05:21:06;;;;;;;;;;;;;;;16.56;100.00;-25533.25;5073034;28;20330;-77
2022/08/09 05:23:33;;;;;;;;;;;;;;;17.01;100.00;-25545.88;5072659;28;19924;-76
2022/08/09 05:25:58;;;;;;;;;;;;;;;17.10;100.00;-25548.34;5072999;28;19948;-75
2022/08/09 05:28:23;;;;;;;;;;;;;;;16.95;100.00;-25544.16;5072587;28;20017;-77
2022/08/09 05:30:49;;;;;;;;;;;;;;;16.67;100.00;-25536.31;5073335;28;20011;-76
2022/08/09 05:33:15;;;;;;;;;;;;;;;16.36;100.00;-25527.44;5072961;28;19921;-76
2022/08/09 05:35:40;;;;;;;;;;;;;;;16.47;100.00;-25530.66;5070657;28;20394;-76
2022/08/09 05:38:06;;;;;;;;;;;;;;;16.44;100.00;-25529.78;5072009;28;20007;-77
2022/08/09 05:40:31;;;;;;;;;;;;;;;16.39;100.00;-25528.47;5073346;28;20323;-77
2022/08/09 05:42:56;;;;;;;;;;;;;;;16.67;100.00;-25536.44;5072964;28;19963;-77
2022/08/09 05:45:22;;;;;;;;;;;;;;;16.82;100.00;-25540.66;5076199;28;19975;-77
2022/08/09 05:47:47;;;;;;;;;;;;;;;17.07;100.00;-25547.63;5073132;28;19927;-76
2022/08/09 05:50:13;;;;;;;;;;;;;;;17.59;100.00;-25562.41;5071557;28;19916;-75
2022/08/09 05:52:43;;;;;;;;;;;;;;;17.63;100.00;-25563.41;5072616;28;20387;-76
2022/08/09 05:55:09;;;;;;;;;;;;;;;18.10;100.00;-25576.59;5106243;28;19916;-76
2022/08/09 05:57:36;;;;;;;;;;;;;;;19.20;100.00;-25607.56;5073819;28;19969;-77
2022/08/09 06:00:03;;;;;;;;;;;;;;;19.67;100.00;-17001.03;5075448;28;19920;-76
2022/08/09 06:02:28;;;;;;;;;;;;;;;19.78;100.00;-5035.94;5072872;28;20298;-76
2022/08/09 06:04:54;;;;;;;;;;;;;;;19.26;100.00;3287.13;5072327;28;19913;-76
2022/08/09 06:07:19;;;;;;;;;;;;;;;18.66;100.00;6275.47;5072555;28;19917;-77
2022/08/09 06:09:44;;;;;;;;;;;;;;;18.45;100.00;3606.22;5072310;28;20280;-77
2022/08/09 06:12:09;;;;;;;;;;;;;;;18.47;100.00;-54.56;5106460;28;19923;-77
2022/08/09 06:14:35;;;;;;;;;;;;;;;18.34;100.00;-2051.28;5105118;28;19927;-76
2022/08/09 06:17:00;;;;;;;;;;;;;;;18.66;100.00;-6369.78;5071350;28;19920;-76
2022/08/09 06:19:25;;;;;;;;;;;;;;;18.96;100.00;-5704.34;5071390;28;20365;-77
2022/08/09 06:21:51;;;;;;;;;;;;;;;19.32;100.00;-710.59;5072358;28;19952;-76
2022/08/09 06:24:18;;;;;;;;;;;;;;;19.50;100.00;4625.63;5105458;28;20364;-77
2022/08/09 06:26:43;;;;;;;;;;;;;;;19.31;100.00;7624.63;5077852;28;19921;-75
2022/08/09 06:29:09;;;;;;;;;;;;;;;18.81;100.00;6612.16;5072512;28;19962;-76
2022/08/09 06:31:35;;;;;;;;;;;;;;;18.63;100.00;945.75;5073193;28;19931;-76
2022/08/09 06:34:01;;;;;;;;;;;;;;;18.13;100.00;-3049.97;5071034;28;19917;-76
2022/08/09 06:36:26;;;;;;;;;;;;;;;17.99;100.00;-9025.22;5071341;28;20007;-75
2022/08/09 06:38:52;;;;;;;;;;;;;;;18.10;100.00;-13335.16;5071690;28;19924;-76
2022/08/09 06:41:18;;;;;;;;;;;;;;;18.63;100.00;-15329.00;5072259;28;19978;-77
2022/08/09 06:43:43;;;;;;;;;;;;;;;19.44;100.00;-12682.94;5070137;28;19912;-76
2022/08/09 06:46:08;;;;;;;;;;;;;;;19.41;100.00;-5037.53;5070078;28;19973;-76
2022/08/09 06:48:34;;;;;;;;;;;;;;;19.97;100.00;-369.97;5103805;28;19927;-77
2022/08/09 06:51:04;;;;;;;;;;;;;;;20.32;100.00;7314.72;5071619;28;19920;-76
2022/08/09 06:53:31;;;;;;;;;;;;;;;20.05;100.00;20697.06;5092655;28;20338;-77
2022/08/09 06:55:59;;;;;;;;;;;;;;;19.18;100.00;23672.75;5074621;28;19920;-77
2022/08/09 06:58:24;;;;;;;;;;;;;;;18.96;100.00;17302.53;5079602;28;19917;-77
2022/08/09 07:00:50;;;;;;;;;;;;;;;18.94;100.00;11954.63;5072918;28;19927;-75
2022/08/09 07:03:15;;;;;;;;;;;;;;;18.97;100.00;4948.59;5087059;28;20391;-77
2022/08/09 07:05:41;;;;;;;;;;;;;;;19.02;100.00;3616.38;5089244;28;20007;-77
2022/08/09 07:08:06;;;;;;;;;;;;;;;19.19;100.00;4286.09;5078641;28;19977;-75
2022/08/09 07:10:32;;;;;;;;;;;;;;;19.34;100.00;2621.78;5071627;28;19921;-76
2022/08/09 07:12:58;;;;;;;;;;;;;;;19.33;100.00;2288.34;5073235;28;19924;-75
2022/08/09 07:15:24;;;;;;;;;;;;;;;20.00;100.00;2298.91;5069589;28;19920;-76
2022/08/09 07:17:54;;;;;;;;;;;;;;;20.96;100.00;12352.44;5069824;28;19920;-77
2022/08/09 07:20:24;;;;;;;;;;;;;;;22.09;100.00;39332.63;5104255;28;20010;-77
2022/08/09 07:22:50;;;;;;;;;;;;;;;22.94;100.00;86034.53;5070146;28;19916;-77
2022/08/09 07:25:15;;;;;;;;;;;;;;;23.53;100.00;148631.88;5103234;28;19920;-79
2022/08/09 07:27:42;;;;;;;;;;;;;;;24.36;100.00;148841.22;5109897;28;19982;-75
2022/08/09 07:30:08;;;;;;;;;;;;;;;23.93;100.00;148733.34;5069089;28;19944;-77
2022/08/09 07:32:34;;;;;;;;;;;;;;;24.10;100.00;148775.72;5070255;28;20365;-75
2022/08/09 07:35:04;;;;;;;;;;;;;;;23.92;100.00;148730.75;5067279;28;19916;-75
2022/08/09 07:37:29;;;;;;;;;;;;;;;24.32;100.00;148830.94;5073654;28;19920;-76
2022/08/09 07:39:54;;;;;;;;;;;;;;;24.28;100.00;148820.66;5070398;28;19943;-76
2022/08/09 07:42:22;;;;;;;;;;;;;;;24.26;100.00;148814.25;5073741;28;19920;-73
2022/08/09 07:44:47;;;;;;;;;;;;;;;25.00;100.00;148999.25;5079181;28;20048;-73
2022/08/09 07:47:13;;;;;;;;;;;;;;;24.88;100.00;148971.00;5088845;28;20451;-74
2022/08/09 07:49:38;;;;;;;;;;;;;;;23.66;100.00;148666.53;5086773;28;19966;-76
2022/08/09 07:52:03;;;;;;;;;;;;;;;23.37;100.00;148593.34;5081954;28;20280;-73
2022/08/09 07:54:30;;;;;;;;;;;;;;;23.23;100.00;148558.69;5079687;28;19921;-73
2022/08/09 07:56:55;;;;;;;;;;;;;;;23.29;100.00;148572.81;5085409;28;19969;-79
2022/08/09 07:59:21;;;;;;;;;;;;;;;23.58;100.00;148645.94;5090334;28;20020;-77
2022/08/09 08:01:46;;;;;;;;;;;;;;;24.42;100.00;148855.31;5089584;28;19946;-77
2022/08/09 08:04:11;;;;;;;;;;;;;;;23.34;100.00;148585.66;5089510;28;20016;-77
2022/08/09 08:06:36;;;;;;;;;;;;;;;22.87;100.00;148467.50;5090396;28;19917;-76
2022/08/09 08:09:03;;;;;;;;;;;;;;;23.56;100.00;148639.56;5090407;28;19916;-77
2022/08/09 08:11:28;;;;;;;;;;;;;;;23.44;100.00;148611.28;5089835;28;19916;-76
2022/08/09 08:13:55;;;;;;;;;;;;;;;22.84;100.00;148459.81;5091479;28;19961;-76
2022/08/09 08:16:21;;;;;;;;;;;;;;;22.57;100.00;148393.09;5094544;28;20007;-75
2022/08/09 08:18:46;;;;;;;;;;;;;;;22.16;100.00;148291.72;5089097;28;20011;-79
2022/08/09 08:21:12;;;;;;;;;;;;;;;22.55;100.00;148389.25;5085363;28;19966;-78
2022/08/09 08:23:37;;;;;;;;;;;;;;;22.68;100.00;148421.31;5084194;28;19929;-78
2022/08/09 08:26:02;;;;;;;;;;;;;;;23.01;100.00;148502.16;5073123;28;20006;-79
2022/08/09 08:28:28;;;;;;;;;;;;;;;23.50;100.00;148624.16;5075130;28;20033;-78
2022/08/09 08:30:53;;;;;;;;;;;;;;;23.59;100.00;148648.53;5108392;28;19926;-77
2022/08/09 08:33:19;;;;;;;;;;;;;;;23.23;100.00;148557.41;5074578;28;20007;-77
2022/08/09 08:35:44;;;;;;;;;;;;;;;23.10;100.00;148526.63;5075617;28;20285;-78
2022/08/09 08:38:09;;;;;;;;;;;;;;;23.85;100.00;148712.81;5076748;28;19916;-75
2022/08/09 08:40:35;;;;;;;;;;;;;;;24.25;100.00;148811.66;5074303;28;20288;-79
2022/08/09 08:43:02;;;;;;;;;;;;;;;23.88;100.00;148720.50;5073925;28;20590;-78
2022/08/09 08:45:31;;;;;;;;;;;;;;;23.40;100.00;148599.75;5072623;28;20361;-78
2022/08/09 08:47:57;;;;;;;;;;;;;;;23.30;100.00;148575.34;5071951;28;19920;-77
2022/08/09 08:50:22;;;;;;;;;;;;;;;23.48;100.00;148621.56;5073048;28;20293;-78
2022/08/09 08:52:53;;;;;;;;;;;;;;;23.14;100.00;148535.59;5073096;28;19939;-78
2022/08/09 08:55:19;;;;;;;;;;;;;;;22.98;100.00;148494.44;5072804;28;19916;-77
2022/08/09 08:57:45;;;;;;;;;;;;;;;23.09;100.00;148522.78;5056329;28;19942;-79
2022/08/09 09:00:11;;;;;;;;;;;;;;;23.29;100.00;148572.81;5073209;28;19967;-78
2022/08/09 09:02:40;;;;;;;;;;;;;;;22.99;100.00;148497.03;5072990;28;19953;-77
2022/08/09 09:05:06;;;;;;;;;;;;;;;22.41;100.00;148353.34;5072961;28;20321;-76
2022/08/09 09:07:32;;;;;;;;;;;;;;;22.65;100.00;148412.34;5073089;28;19917;-77
2022/08/09 09:10:00;;;;;;;;;;;;;;;23.18;100.00;148545.88;5073119;28;19943;-76
2022/08/09 09:12:32;;;;;;;;;;;;;;;22.94;100.00;148485.47;5074575;28;19923;-77
2022/08/09 09:14:59;;;;;;;;;;;;;;;22.74;100.00;148435.44;5073547;28;19920;-78
2022/08/09 09:17:24;;;;;;;;;;;;;;;22.28;100.00;148319.91;5073244;28;19924;-76
2022/08/09 09:19:51;;;;;;;;;;;;;;;22.70;100.00;148425.16;5073637;28;19916;-77
2022/08/09 09:22:18;;;;;;;;;;;;;;;23.05;100.00;148512.44;5072918;28;19917;-77
2022/08/09 09:24:50;;;;;;;;;;;;;;;23.03;100.00;148508.59;5072779;28;20340;-77
2022/08/09 09:27:16;;;;;;;;;;;;;;;23.30;100.00;148576.69;5055931;28;20023;-79
2022/08/09 09:29:42;;;;;;;;;;;;;;;22.87;100.00;148467.50;5073954;28;19924;-78
2022/08/09 09:32:08;;;;;;;;;;;;;;;22.85;100.00;148463.66;5073230;28;19920;-78
2022/08/09 09:34:36;;;;;;;;;;;;;;;22.91;100.00;148479.06;5072858;28;20026;-78
2022/08/09 09:37:02;;;;;;;;;;;;;;;22.83;100.00;148458.53;5072305;28;19940;-79
2022/08/09 09:39:28;;;;;;;;;;;;;;;22.71;100.00;148427.75;5073250;28;20337;-78
2022/08/09 09:41:53;;;;;;;;;;;;;;;22.78;100.00;148445.72;5072223;28;19916;-78
2022/08/09 09:44:24;;;;;;;;;;;;;;;22.73;100.00;148432.84;5070905;28;19917;-80
2022/08/09 09:46:53;;;;;;;;;;;;;;;22.73;100.00;148432.84;5072485;28;19912;-77
2022/08/09 09:49:20;;;;;;;;;;;;;;;22.26;100.00;148314.78;5072748;28;19920;-77
2022/08/09 09:51:45;;;;;;;;;;;;;;;22.27;100.00;148318.66;5072345;28;19999;-78
2022/08/09 09:54:14;;;;;;;;;;;;;;;22.22;100.00;148305.84;5072043;28;20323;-77
2022/08/09 09:56:41;;;;;;;;;;;;;;;21.91;100.00;148228.88;5072632;28;20015;-78
2022/08/09 09:59:10;;;;;;;;;;;;;;;22.26;100.00;148314.78;5072249;28;19916;-78
2022/08/09 10:01:36;;;;;;;;;;;;;;;22.63;100.00;148407.22;5072664;28;19923;-78
2022/08/09 10:04:02;;;;;;;;;;;;;;;22.57;100.00;148393.09;5071973;28;20011;-77
2022/08/09 10:06:38;;;;;;;;;;;;;;;22.55;100.00;148387.97;5072792;28;19942;-77
2022/08/09 10:09:04;;;;;;;;;;;;;;;22.43;100.00;148357.19;5073468;28;19939;-79
2022/08/09 10:11:31;;;;;;;;;;;;;;;22.82;100.00;148454.69;5072274;28;20603;-78
2022/08/09 10:13:57;;;;;;;;;;;;;;;23.00;100.00;148500.88;5072169;28;20001;-77
2022/08/09 10:16:30;;;;;;;;;;;;;;;23.11;100.00;148529.16;5072566;28;19924;-77
2022/08/09 10:18:56;;;;;;;;;;;;;;;22.62;100.00;148404.63;5071661;28;19912;-78
2022/08/09 10:21:22;;;;;;;;;;;;;;;22.51;100.00;148379.00;5072241;28;20369;-77
2022/08/09 10:23:48;;;;;;;;;;;;;;;22.72;100.00;148430.31;5071826;28;19912;-76
2022/08/09 10:26:13;;;;;;;;;;;;;;;22.61;100.00;148403.38;5071435;28;20654;-78
2022/08/09 10:28:39;;;;;;;;;;;;;;;22.69;100.00;148422.63;5072569;28;20011;-77
2022/08/09 10:31:06;;;;;;;;;;;;;;;22.88;100.00;148470.09;5072122;28;19916;-77
2022/08/09 10:33:33;;;;;;;;;;;;;;;23.23;100.00;148558.69;5071157;28;20008;-77
2022/08/09 10:35:59;;;;;;;;;;;;;;;23.39;100.00;148597.19;5070444;28;19920;-75
2022/08/09 10:38:24;;;;;;;;;;;;;;;23.19;100.00;148547.13;5071316;28;20011;-78
2022/08/09 10:40:49;;;;;;;;;;;;;;;23.15;100.00;148538.16;5070158;28;20384;-77
2022/08/09 10:43:16;;;;;;;;;;;;;;;23.12;100.00;148530.47;5055064;28;19928;-78
2022/08/09 10:45:42;;;;;;;;;;;;;;;23.28;100.00;148570.25;5072187;28;19951;-78
2022/08/09 10:48:14;;;;;;;;;;;;;;;23.35;100.00;148586.91;5072776;28;19920;-79
2022/08/09 10:51:08;;;;;;;;;;;;;;;23.43;100.00;148608.75;5069023;28;20019;-79
2022/08/09 10:53:58;;;;;;;;;;;;;;;23.45;100.00;148612.59;5071856;28;20003;-78
2022/08/09 10:56:34;;;;;;;;;;;;;;;23.75;100.00;148688.34;5072721;28;19916;-79
2022/08/09 10:59:00;;;;;;;;;;;;;;;23.51;100.00;148628.00;5072011;28;20530;-78
2022/08/09 11:01:31;;;;;;;;;;;;;;;23.26;100.00;148566.41;5072267;28;20074;-79
2022/08/09 11:04:12;;;;;;;;;;;;;;;23.45;100.00;148612.59;5071855;28;19927;-78
2022/08/09 11:06:38;;;;;;;;;;;;;;;23.74;100.00;148684.47;5071957;28;20276;-78
2022/08/09 11:09:04;;;;;;;;;;;;;;;23.66;100.00;148666.53;5071460;28;19917;-80
2022/08/09 11:11:49;;;;;;;;;;;;;;;23.63;100.00;148658.81;5071563;28;19916;-78
2022/08/09 11:14:32;;;;;;;;;;;;;;;23.51;100.00;148626.69;5069752;28;19961;-75
2022/08/09 11:16:58;;;;;;;;;;;;;;;23.52;100.00;148630.53;5069677;28;20384;-76
2022/08/09 11:19:42;;;;;;;;;;;;;;;23.99;100.00;148748.75;5070767;28;19963;-76
2022/08/09 11:22:07;;;;;;;;;;;;;;;23.58;100.00;148645.94;5070562;28;20365;-76
2022/08/09 11:24:51;;;;;;;;;;;;;;;23.81;100.00;148702.47;5071251;28;19917;-76
2022/08/09 11:27:43;;;;;;;;;;;;;;;23.60;100.00;148649.81;5070565;28;19916;-77
2022/08/09 11:30:09;;;;;;;;;;;;;;;23.53;100.00;148633.13;5067125;28;19947;-77
2022/08/09 11:32:41;;;;;;;;;;;;;;;23.51;100.00;148626.69;5071057;28;19917;-75
2022/08/09 11:35:18;;;;;;;;;;;;;;;23.50;100.00;148624.16;5070782;28;19962;-77
2022/08/09 11:37:44;;;;;;;;;;;;;;;23.66;100.00;148665.22;5071128;28;19917;-76
2022/08/09 11:40:11;;;;;;;;;;;;;;;23.76;100.00;148689.66;5070823;28;20380;-77
2022/08/09 11:42:38;;;;;;;;;;;;;;;23.57;100.00;148643.41;5070647;28;20008;-76
2022/08/09 11:45:04;;;;;;;;;;;;;;;23.54;100.00;148634.41;5071737;28;19969;-76
2022/08/09 11:47:45;;;;;;;;;;;;;;;23.48;100.00;148620.31;5070407;28;19917;-75
2022/08/09 11:50:10;;;;;;;;;;;;;;;23.67;100.00;148669.06;5072064;28;19917;-77
2022/08/09 11:52:55;;;;;;;;;;;;;;;23.69;100.00;148671.66;5073722;28;19923;-77
2022/08/09 11:55:34;;;;;;;;;;;;;;;23.72;100.00;148680.63;5074404;28;19943;-79
2022/08/09 11:58:01;;;;;;;;;;;;;;;23.94;100.00;148734.59;5074196;28;20368;-77
2022/08/09 12:00:27;;;;;;;;;;;;;;;23.90;100.00;148724.38;5074170;28;19974;-77
2022/08/09 12:02:56;;;;;;;;;;;;;;;23.67;100.00;148669.06;5074072;28;20370;-74
2022/08/09 12:05:28;;;;;;;;;;;;;;;23.79;100.00;148698.63;5073470;28;20050;-74
2022/08/09 12:07:53;;;;;;;;;;;;;;;23.85;100.00;148712.81;5074112;28;19961;-76
2022/08/09 12:10:19;;;;;;;;;;;;;;;24.12;100.00;148780.84;5073424;28;19999;-77
2022/08/09 12:12:48;;;;;;;;;;;;;;;24.48;100.00;148870.75;5073772;28;19939;-76
2022/08/09 12:15:21;;;;;;;;;;;;;;;24.56;100.00;148890.00;5073440;28;20375;-78
2022/08/09 12:17:47;;;;;;;;;;;;;;;24.27;100.00;148818.09;5073552;28;19940;-75
2022/08/09 12:20:14;;;;;;;;;;;;;;;24.50;100.00;148875.91;5073269;28;19917;-76
2022/08/09 12:22:40;;;;;;;;;;;;;;;24.24;100.00;148809.09;5074049;28;19957;-75
2022/08/09 12:25:11;;;;;;;;;;;;;;;24.12;100.00;148780.84;5072714;28;19923;-76
2022/08/09 12:27:36;;;;;;;;;;;;;;;24.50;100.00;148875.91;5073886;28;19916;-76
2022/08/09 12:30:02;;;;;;;;;;;;;;;24.35;100.00;148837.38;5073865;28;20011;-78